createdAt,value
2023-04-26T00:03:18.992Z,9.55
2023-04-26T00:08:20.441Z,9.58
2023-04-26T00:13:22.000Z,9.55
2023-04-26T00:18:23.700Z,9.46
2023-04-26T00:23:25.132Z,9.36
2023-04-26T00:28:26.455Z,9.41
2023-04-26T00:33:27.798Z,9.50
2023-04-26T00:38:29.213Z,9.49
2023-04-26T00:43:30.649Z,9.39
2023-04-26T00:48:33.107Z,9.44
2023-04-26T00:53:35.548Z,9.32
2023-04-26T00:58:37.886Z,9.33
2023-04-26T01:03:39.362Z,9.25
2023-04-26T01:08:41.440Z,9.18
2023-04-26T01:13:43.453Z,9.07
2023-04-26T01:18:50.479Z,9.03
2023-04-26T01:23:52.866Z,9.06
2023-04-26T01:28:54.424Z,9.02
2023-04-26T01:33:56.428Z,8.98
2023-04-26T01:38:57.964Z,8.91
2023-04-26T01:43:59.349Z,8.89
2023-04-26T01:49:01.206Z,8.84
2023-04-26T01:54:03.101Z,8.83
2023-04-26T01:59:04.428Z,8.77
2023-04-26T02:04:06.312Z,8.88
2023-04-26T02:09:09.438Z,8.77
2023-04-26T02:14:10.958Z,8.78
2023-04-26T02:19:12.581Z,8.67
2023-04-26T02:24:14.071Z,8.61
2023-04-26T02:29:15.419Z,8.61
2023-04-26T02:34:17.671Z,8.55
2023-04-26T02:39:19.348Z,8.42
2023-04-26T02:44:20.814Z,8.45
2023-04-26T02:49:22.203Z,8.45
2023-04-26T02:54:23.621Z,8.43
2023-04-26T02:59:25.127Z,8.41
2023-04-26T03:04:26.470Z,8.28
2023-04-26T03:09:27.886Z,8.23
2023-04-26T03:14:29.196Z,8.15
2023-04-26T03:19:30.610Z,8.13
2023-04-26T03:24:32.708Z,7.99
2023-04-26T03:29:34.104Z,7.86
2023-04-26T03:34:35.706Z,7.81
2023-04-26T03:39:37.017Z,7.83
2023-04-26T03:44:38.395Z,7.74
2023-04-26T03:49:39.723Z,7.61
2023-04-26T03:54:41.002Z,7.44
2023-04-26T03:59:42.375Z,7.37
2023-04-26T04:04:43.951Z,7.35
2023-04-26T04:09:45.648Z,7.34
2023-04-26T04:14:47.344Z,7.30
2023-04-26T04:19:48.770Z,7.20
2023-04-26T04:24:50.157Z,7.14
2023-04-26T04:29:51.878Z,7.08
2023-04-26T04:34:54.270Z,7.01
2023-04-26T04:39:55.699Z,6.96
2023-04-26T04:44:57.528Z,7.01
2023-04-26T04:49:59.056Z,6.95
2023-04-26T04:55:01.155Z,6.87
2023-04-26T05:00:07.922Z,6.84
2023-04-26T05:05:11.071Z,6.90
2023-04-26T05:10:12.771Z,7.01
2023-04-26T05:15:14.316Z,6.94
2023-04-26T05:20:15.834Z,6.87
2023-04-26T05:25:17.524Z,6.87
2023-04-26T05:30:19.139Z,6.87
2023-04-26T05:35:20.520Z,6.93
2023-04-26T05:40:21.801Z,6.99
2023-04-26T05:45:23.292Z,7.06
2023-04-26T05:50:24.873Z,7.19
2023-04-26T05:55:26.306Z,7.37
2023-04-26T06:00:27.643Z,7.44
2023-04-26T06:05:29.311Z,7.59
2023-04-26T06:10:30.714Z,7.76
2023-04-26T06:15:32.076Z,7.96
2023-04-26T06:20:33.562Z,8.18
2023-04-26T06:25:35.017Z,8.39
2023-04-26T06:30:36.675Z,8.56
2023-04-26T06:35:41.508Z,8.77
2023-04-26T06:40:42.752Z,8.78
2023-04-26T06:45:44.080Z,8.91
2023-04-26T06:50:45.462Z,9.12
2023-04-26T06:55:47.016Z,9.07
2023-04-26T07:00:48.319Z,9.26
2023-04-26T07:05:49.665Z,9.51
2023-04-26T07:10:51.710Z,9.78
2023-04-26T07:15:53.349Z,9.82
2023-04-26T07:20:54.706Z,9.85
2023-04-26T07:25:57.825Z,9.94
2023-04-26T07:31:01.196Z,10.17
2023-04-26T07:36:02.892Z,10.36
2023-04-26T07:41:04.953Z,10.65
2023-04-26T07:46:06.383Z,10.66
2023-04-26T07:51:11.988Z,10.93
2023-04-26T07:56:13.562Z,11.19
2023-04-26T08:01:16.729Z,11.44
2023-04-26T08:06:18.408Z,11.79
2023-04-26T08:11:20.071Z,12.00
2023-04-26T08:16:21.418Z,11.96
2023-04-26T08:21:23.119Z,12.36
2023-04-26T08:26:24.987Z,12.56
2023-04-26T08:31:28.091Z,12.32
2023-04-26T08:36:29.519Z,12.40
2023-04-26T08:41:36.868Z,12.46
2023-04-26T08:46:57.896Z,12.27
2023-04-26T08:52:00.553Z,12.56
2023-04-26T08:57:02.759Z,12.53
2023-04-26T09:02:09.748Z,12.85
2023-04-26T09:07:15.852Z,12.95
2023-04-26T09:12:21.236Z,12.84
2023-04-26T09:17:26.827Z,12.73
2023-04-26T09:22:32.487Z,12.62
2023-04-26T09:27:39.189Z,12.70
2023-04-26T09:32:48.205Z,13.13
2023-04-26T09:38:00.179Z,13.41
2023-04-26T09:43:15.417Z,13.95
2023-04-26T09:48:23.148Z,13.85
2023-04-26T09:53:28.156Z,14.12
2023-04-26T09:58:29.678Z,14.19
2023-04-26T10:03:33.936Z,14.39
2023-04-26T10:08:36.757Z,13.77
2023-04-26T10:13:39.787Z,13.53
2023-04-26T10:18:41.238Z,13.57
2023-04-26T10:23:43.512Z,12.81
2023-04-26T10:28:45.145Z,12.70
2023-04-26T10:34:19.660Z,12.97
2023-04-26T10:39:25.170Z,13.06
2023-04-26T10:44:40.937Z,13.97
2023-04-26T10:49:48.422Z,14.47
2023-04-26T10:54:53.434Z,15.08
2023-04-26T11:00:21.030Z,14.74
2023-04-26T11:05:54.255Z,14.39
2023-04-26T11:11:05.068Z,15.27
2023-04-26T11:16:12.009Z,15.55
2023-04-26T11:21:17.556Z,15.76
2023-04-26T11:26:18.976Z,15.71
2023-04-26T11:31:20.698Z,16.45
2023-04-26T11:36:22.624Z,17.28
2023-04-26T11:41:24.627Z,16.87
2023-04-26T11:46:26.591Z,17.59
2023-04-26T11:51:30.672Z,17.77
2023-04-26T11:56:33.245Z,17.22
2023-04-26T12:01:34.760Z,17.00
2023-04-26T12:06:44.313Z,16.80
2023-04-26T12:12:06.369Z,16.88
2023-04-26T12:17:08.138Z,16.74
2023-04-26T12:22:09.719Z,16.88
2023-04-26T12:27:21.819Z,16.99
2023-04-26T12:32:23.791Z,16.96
2023-04-26T12:37:25.136Z,16.71
2023-04-26T12:42:26.682Z,16.81
2023-04-26T12:47:28.030Z,17.17
2023-04-26T12:52:30.267Z,17.03
2023-04-26T12:57:31.609Z,17.10
2023-04-26T13:02:34.961Z,17.49
2023-04-26T13:07:39.302Z,17.42
2023-04-26T13:12:40.977Z,17.51
2023-04-26T13:17:44.428Z,17.80
2023-04-26T13:22:46.086Z,18.11
2023-04-26T13:27:47.526Z,17.61
2023-04-26T13:32:49.458Z,16.93
2023-04-26T13:37:51.162Z,17.34
2023-04-26T13:42:52.551Z,17.32
2023-04-26T13:47:53.999Z,17.46
2023-04-26T13:52:55.450Z,17.37
2023-04-26T13:57:57.337Z,17.49
2023-04-26T14:02:58.855Z,17.02
2023-04-26T14:08:01.113Z,16.92
2023-04-26T14:13:02.842Z,16.96
2023-04-26T14:18:04.321Z,17.20
2023-04-26T14:23:05.775Z,17.27
2023-04-26T14:28:08.728Z,17.23
2023-04-26T14:33:16.169Z,17.13
2023-04-26T14:38:18.520Z,17.05
2023-04-26T14:43:19.925Z,16.84
2023-04-26T14:48:21.524Z,16.69
2023-04-26T14:53:22.862Z,16.46
2023-04-26T14:58:25.213Z,16.30
2023-04-26T15:03:27.862Z,16.30
2023-04-26T15:08:29.364Z,16.30
2023-04-26T15:13:30.702Z,16.36
2023-04-26T15:18:32.318Z,16.17
2023-04-26T15:23:36.262Z,15.86
2023-04-26T15:28:37.671Z,15.72
2023-04-26T15:33:39.099Z,15.77
2023-04-26T15:38:44.733Z,15.70
2023-04-26T15:43:46.055Z,15.48
2023-04-26T15:48:47.648Z,15.37
2023-04-26T15:53:51.031Z,15.28
2023-04-26T15:58:52.506Z,15.24
2023-04-26T16:03:53.917Z,15.16
2023-04-26T16:08:55.864Z,15.05
2023-04-26T16:13:57.233Z,15.00
2023-04-26T16:18:58.706Z,14.83
2023-04-26T16:24:00.204Z,14.79
2023-04-26T16:29:01.758Z,14.77
2023-04-26T16:34:03.257Z,14.74
2023-04-26T16:39:04.678Z,14.72
2023-04-26T16:44:06.148Z,14.59
2023-04-26T16:49:09.655Z,14.57
2023-04-26T16:54:11.316Z,14.48
2023-04-26T16:59:12.716Z,14.34
2023-04-26T17:04:14.209Z,14.26
2023-04-26T17:09:15.833Z,14.17
2023-04-26T17:14:17.249Z,14.10
2023-04-26T17:19:18.590Z,14.05
2023-04-26T17:24:20.151Z,13.96
2023-04-26T17:29:21.457Z,13.86
2023-04-26T17:34:22.766Z,13.71
2023-04-26T17:39:24.821Z,13.60
2023-04-26T17:44:26.205Z,13.58
2023-04-26T17:49:27.573Z,13.53
2023-04-26T17:54:29.355Z,13.46
2023-04-26T17:59:30.643Z,13.40
2023-04-26T18:04:32.088Z,13.28
2023-04-26T18:09:33.696Z,13.24
2023-04-26T18:14:35.114Z,13.18
2023-04-26T18:19:36.641Z,13.15
2023-04-26T18:24:38.193Z,13.11
2023-04-26T18:29:39.852Z,13.05
2023-04-26T18:34:41.617Z,12.97
2023-04-26T18:39:42.973Z,12.92
2023-04-26T18:44:44.417Z,12.87
2023-04-26T18:49:45.689Z,12.78
2023-04-26T18:54:47.009Z,12.67
2023-04-26T18:59:49.400Z,12.62
2023-04-26T19:04:50.916Z,12.59
2023-04-26T19:09:54.526Z,12.45
2023-04-26T19:14:56.711Z,12.41
2023-04-26T19:19:58.084Z,12.31
2023-04-26T19:24:59.474Z,12.27
2023-04-26T19:30:01.338Z,12.21
2023-04-26T19:35:04.799Z,12.17
2023-04-26T19:40:07.420Z,12.10
2023-04-26T19:45:09.256Z,12.06
2023-04-26T19:50:11.462Z,12.01
2023-04-26T19:55:13.529Z,12.00
2023-04-26T20:00:15.907Z,11.98
2023-04-26T20:05:17.532Z,11.91
2023-04-26T20:10:20.256Z,11.88
2023-04-26T20:15:21.767Z,11.84
2023-04-26T20:20:23.271Z,11.80
2023-04-26T20:25:25.600Z,11.78
2023-04-26T20:30:29.611Z,11.74
2023-04-26T20:35:30.942Z,11.69
2023-04-26T20:40:32.470Z,11.61
2023-04-26T20:45:34.113Z,11.63
2023-04-26T20:50:36.709Z,11.57
2023-04-26T20:55:38.285Z,11.57
2023-04-26T21:00:40.312Z,11.51
2023-04-26T21:05:41.727Z,11.46
2023-04-26T21:10:43.170Z,11.34
2023-04-26T21:15:44.563Z,11.32
2023-04-26T21:20:45.883Z,11.31
2023-04-26T21:25:48.224Z,11.21
2023-04-26T21:30:50.349Z,11.15
2023-04-26T21:35:51.836Z,11.07
2023-04-26T21:40:53.199Z,11.09
2023-04-26T21:45:58.486Z,11.11
2023-04-26T21:51:00.059Z,11.03
2023-04-26T21:56:01.451Z,10.99
2023-04-26T22:01:11.313Z,10.97
2023-04-26T22:06:12.745Z,10.93
2023-04-26T22:11:14.291Z,10.93
2023-04-26T22:16:15.651Z,10.88
2023-04-26T22:21:17.088Z,10.85
2023-04-26T22:26:18.422Z,10.91
2023-04-26T22:31:19.866Z,10.91
2023-04-26T22:36:21.812Z,10.99
2023-04-26T22:41:23.556Z,11.01
2023-04-26T22:46:25.123Z,11.04
2023-04-26T22:51:27.780Z,10.94
2023-04-26T22:56:29.102Z,10.96
2023-04-26T23:01:31.204Z,10.93
2023-04-26T23:06:32.562Z,10.91
2023-04-26T23:11:34.140Z,10.86
2023-04-26T23:16:35.797Z,10.79
2023-04-26T23:21:37.275Z,10.78
2023-04-26T23:26:38.734Z,10.71
2023-04-26T23:31:40.158Z,10.72
2023-04-26T23:36:41.553Z,10.63
2023-04-26T23:41:42.925Z,10.63
2023-04-26T23:46:44.283Z,10.60
2023-04-26T23:51:45.659Z,10.57
2023-04-26T23:56:47.055Z,10.57
